Decoded Metar for YGLA ( in ) (IATA:) | Meteo·Mobile Aviation Weather
aviador You're here:

YGLA Decoded Metar

in
Report Time2019-07-21 17:00:00
UTC Time2019-07-21 17:33:20
Flight Rules vfr VFR
Wind210° at 04 kt
W.Decomp.*RWY 28: 1.4 kt HW 3.8 kt LCW
Visibility9999 m
Phenomena:N/A
Clouds:Overcast 099 Hf
Expected CloudBase > 1,200 ft AGL from Temp-Dew spread
Ceiling9,900 ft
Temp17°C
Dew Point14°C (83% RH)
AAT16.9°C
QNH1017 hPa
Raw Report
METAR YGLA 211700Z AUTO 21004KT 9999 // OVC099 17/14 Q1017=

Extra information for YGLA:More info

Social comments